createdAt,value
2022-09-23T00:01:07.935Z,90.24
2022-09-23T00:03:38.509Z,89.93
2022-09-23T00:06:07.991Z,89.84
2022-09-23T00:08:35.371Z,89.49
2022-09-23T00:11:06.266Z,89.50
2022-09-23T00:13:34.013Z,89.42
2022-09-23T00:16:03.833Z,89.81
2022-09-23T00:18:31.394Z,89.88
2022-09-23T00:21:02.992Z,89.83
2022-09-23T00:23:30.345Z,89.78
2022-09-23T00:25:57.975Z,89.28
2022-09-23T00:28:25.244Z,89.41
2022-09-23T00:30:52.975Z,89.49
2022-09-23T00:33:20.642Z,89.65
2022-09-23T00:35:47.990Z,89.51
2022-09-23T00:38:17.322Z,89.21
2022-09-23T00:40:46.335Z,89.57
2022-09-23T00:43:15.028Z,89.31
2022-09-23T00:45:45.638Z,88.94
2022-09-23T00:48:17.195Z,89.32
2022-09-23T00:50:49.153Z,88.97
2022-09-23T00:53:22.672Z,89.26
2022-09-23T00:55:54.796Z,88.88
2022-09-23T00:58:27.010Z,89.00
2022-09-23T01:00:54.699Z,88.90
2022-09-23T01:03:23.057Z,89.43
2022-09-23T01:05:51.148Z,89.29
2022-09-23T01:08:21.550Z,88.86
2022-09-23T01:10:59.058Z,89.10
2022-09-23T01:13:36.066Z,88.92
2022-09-23T01:16:09.596Z,89.43
2022-09-23T01:18:47.124Z,88.88
2022-09-23T01:21:23.401Z,89.43
2022-09-23T01:24:23.557Z,89.58
2022-09-23T01:27:02.212Z,89.46
2022-09-23T01:30:05.971Z,89.46
2022-09-23T01:32:45.974Z,89.04
2022-09-23T01:35:23.892Z,89.22
2022-09-23T01:38:00.027Z,89.54
2022-09-23T01:40:35.330Z,89.37
2022-09-23T01:43:09.315Z,89.01
2022-09-23T01:45:43.567Z,89.24
2022-09-23T01:48:18.521Z,88.92
2022-09-23T01:50:56.672Z,89.17
2022-09-23T01:53:31.411Z,88.88
2022-09-23T01:56:03.015Z,89.37
2022-09-23T01:58:38.235Z,89.19
2022-09-23T02:01:08.778Z,88.85
2022-09-23T02:03:44.471Z,89.17
2022-09-23T02:06:16.219Z,89.22
2022-09-23T02:08:47.589Z,89.84
2022-09-23T02:11:15.737Z,89.85
2022-09-23T02:13:49.000Z,90.01
2022-09-23T02:16:25.603Z,90.01
2022-09-23T02:19:00.168Z,90.02
2022-09-23T02:21:34.069Z,89.81
2022-09-23T02:24:09.293Z,89.61
2022-09-23T02:26:48.783Z,89.52
2022-09-23T02:29:21.148Z,90.02
2022-09-23T02:31:54.961Z,89.58
2022-09-23T02:34:32.635Z,89.48
2022-09-23T02:37:10.770Z,89.46
2022-09-23T02:39:46.364Z,89.52
2022-09-23T02:42:19.089Z,89.91
2022-09-23T02:44:46.733Z,89.56
2022-09-23T02:47:13.982Z,89.61
2022-09-23T02:49:42.574Z,89.75
2022-09-23T02:52:12.080Z,89.69
2022-09-23T02:54:40.722Z,89.62
2022-09-23T02:57:09.151Z,89.89
2022-09-23T02:59:37.091Z,89.36
2022-09-23T03:02:20.690Z,89.86
2022-09-23T03:04:59.031Z,89.60
2022-09-23T03:07:36.568Z,89.72
2022-09-23T03:10:09.843Z,89.25
2022-09-23T03:12:48.131Z,89.44
2022-09-23T03:15:25.342Z,89.75
2022-09-23T03:18:03.032Z,89.23
2022-09-23T03:20:35.549Z,89.56
2022-09-23T03:23:07.060Z,89.73
2022-09-23T03:25:38.240Z,89.33
2022-09-23T03:28:08.546Z,89.38
2022-09-23T03:30:37.829Z,89.84
2022-09-23T03:33:09.423Z,89.68
2022-09-23T03:36:13.767Z,89.42
2022-09-23T03:38:45.355Z,89.41
2022-09-23T03:41:19.767Z,89.68
2022-09-23T03:43:47.831Z,89.52
2022-09-23T03:46:18.506Z,89.49
2022-09-23T03:48:45.884Z,89.94
2022-09-23T03:51:21.592Z,89.50
2022-09-23T03:53:48.742Z,89.71
2022-09-23T03:56:16.432Z,89.33
2022-09-23T03:58:45.573Z,89.04
2022-09-23T04:01:14.866Z,89.20
2022-09-23T04:03:42.363Z,88.82
2022-09-23T04:06:09.760Z,88.58
2022-09-23T04:08:38.365Z,88.64
2022-09-23T04:11:05.908Z,88.58
2022-09-23T04:13:33.236Z,88.44
2022-09-23T04:16:00.747Z,88.82
2022-09-23T04:18:28.232Z,88.73
2022-09-23T04:20:57.896Z,88.50
2022-09-23T04:23:25.314Z,88.58
2022-09-23T04:25:56.466Z,88.62
2022-09-23T04:28:23.930Z,88.35
2022-09-23T04:30:51.261Z,88.67
2022-09-23T04:33:18.521Z,88.30
2022-09-23T04:35:50.572Z,88.45
2022-09-23T04:38:19.185Z,87.96
2022-09-23T04:40:46.950Z,88.07
2022-09-23T04:43:16.433Z,87.64
2022-09-23T04:45:44.153Z,87.75
2022-09-23T04:48:11.690Z,87.71
2022-09-23T04:50:39.516Z,87.26
2022-09-23T04:53:06.763Z,87.25
2022-09-23T04:55:34.030Z,86.81
2022-09-23T04:58:01.458Z,87.06
2022-09-23T05:00:30.174Z,86.53
2022-09-23T05:02:57.615Z,86.29
2022-09-23T05:05:24.850Z,86.17
2022-09-23T05:07:52.084Z,85.81
2022-09-23T05:10:19.441Z,86.04
2022-09-23T05:12:46.585Z,85.49
2022-09-23T05:15:15.307Z,85.79
2022-09-23T05:17:43.995Z,85.29
2022-09-23T05:20:11.735Z,85.74
2022-09-23T05:22:38.947Z,85.12
2022-09-23T05:25:06.807Z,84.90
2022-09-23T05:27:34.119Z,85.24
2022-09-23T05:30:01.401Z,84.53
2022-09-23T05:32:29.946Z,84.93
2022-09-23T05:34:58.604Z,84.41
2022-09-23T05:37:25.836Z,84.70
2022-09-23T05:39:53.147Z,84.67
2022-09-23T05:42:21.276Z,84.11
2022-09-23T05:44:49.044Z,83.87
2022-09-23T05:47:16.296Z,83.63
2022-09-23T05:49:59.032Z,83.25
2022-09-23T05:52:28.571Z,83.49
2022-09-23T05:54:56.011Z,83.15
2022-09-23T05:57:23.398Z,82.73
2022-09-23T05:59:50.535Z,82.69
2022-09-23T06:02:17.841Z,82.13
2022-09-23T06:04:45.597Z,82.18
2022-09-23T06:07:12.942Z,82.36
2022-09-23T06:09:42.415Z,81.58
2022-09-23T06:12:09.568Z,81.51
2022-09-23T06:14:37.182Z,81.86
2022-09-23T06:17:05.655Z,81.44
2022-09-23T06:19:32.862Z,81.21
2022-09-23T06:22:00.308Z,80.94
2022-09-23T06:24:31.301Z,80.26
2022-09-23T06:27:01.259Z,79.79
2022-09-23T06:29:30.046Z,79.17
2022-09-23T06:31:59.964Z,79.33
2022-09-23T06:34:27.168Z,78.51
2022-09-23T06:36:55.665Z,77.60
2022-09-23T06:39:22.956Z,76.71
2022-09-23T06:41:50.203Z,76.91
2022-09-23T06:44:18.913Z,77.05
2022-09-23T06:46:46.200Z,76.97
2022-09-23T06:49:13.702Z,76.67
2022-09-23T06:51:41.564Z,77.21
2022-09-23T06:54:09.061Z,76.93
2022-09-23T06:56:39.013Z,76.71
2022-09-23T06:59:07.724Z,76.74
2022-09-23T07:01:36.607Z,76.45
2022-09-23T07:04:03.938Z,76.44
2022-09-23T07:06:31.275Z,76.37
2022-09-23T07:08:58.560Z,76.48
2022-09-23T07:11:25.781Z,76.57
2022-09-23T07:13:53.159Z,76.43
2022-09-23T07:16:21.395Z,75.74
2022-09-23T07:18:50.118Z,76.55
2022-09-23T07:21:18.714Z,77.02
2022-09-23T07:23:47.723Z,76.70
2022-09-23T07:26:16.529Z,77.17
2022-09-23T07:28:44.037Z,76.81
2022-09-23T07:31:13.329Z,76.55
2022-09-23T07:33:44.335Z,76.23
2022-09-23T07:36:14.859Z,76.10
2022-09-23T07:38:45.427Z,75.87
2022-09-23T07:41:15.773Z,75.73
2022-09-23T07:43:44.223Z,75.35
2022-09-23T07:46:14.511Z,75.35
2022-09-23T07:48:42.219Z,75.39
2022-09-23T07:51:11.325Z,75.25
2022-09-23T07:53:40.113Z,75.57
2022-09-23T07:56:07.673Z,75.49
2022-09-23T07:58:35.480Z,75.11
2022-09-23T08:01:05.123Z,75.12
2022-09-23T08:03:32.516Z,75.14
2022-09-23T08:06:07.596Z,75.13
2022-09-23T08:08:35.793Z,75.31
2022-09-23T08:11:06.736Z,74.81
2022-09-23T08:13:34.433Z,75.01
2022-09-23T08:16:02.184Z,74.86
2022-09-23T08:18:30.361Z,75.05
2022-09-23T08:20:57.835Z,74.52
2022-09-23T08:23:25.055Z,75.02
2022-09-23T08:25:59.634Z,74.62
2022-09-23T08:28:28.720Z,74.71
2022-09-23T08:30:56.270Z,74.74
2022-09-23T08:33:24.053Z,74.82
2022-09-23T08:35:52.340Z,74.75
2022-09-23T08:38:20.796Z,74.68
2022-09-23T08:40:50.037Z,74.52
2022-09-23T08:43:23.754Z,74.20
2022-09-23T08:45:55.092Z,73.78
2022-09-23T08:48:29.457Z,73.78
2022-09-23T08:51:02.420Z,73.45
2022-09-23T08:53:32.882Z,73.10
2022-09-23T08:56:04.189Z,73.10
2022-09-23T08:58:43.367Z,73.05
2022-09-23T09:01:18.634Z,73.23
2022-09-23T09:03:50.651Z,73.59
2022-09-23T09:06:20.365Z,73.51
2022-09-23T09:08:54.628Z,73.51
2022-09-23T09:11:24.423Z,73.32
2022-09-23T09:14:01.440Z,73.29
2022-09-23T09:17:00.606Z,72.86
2022-09-23T09:20:05.409Z,73.11
2022-09-23T09:22:43.886Z,73.17
2022-09-23T09:25:24.227Z,73.23
2022-09-23T09:27:54.632Z,73.05
2022-09-23T09:30:28.555Z,72.60
2022-09-23T09:33:02.092Z,72.63
2022-09-23T09:35:37.876Z,72.48
2022-09-23T09:38:08.051Z,72.37
2022-09-23T09:40:35.482Z,72.27
2022-09-23T09:43:06.042Z,72.47
2022-09-23T09:45:57.751Z,72.46
2022-09-23T09:48:37.918Z,72.59
2022-09-23T09:51:18.869Z,72.61
2022-09-23T09:53:46.107Z,72.35
2022-09-23T09:56:16.576Z,72.38
2022-09-23T09:58:48.619Z,71.97
2022-09-23T10:01:20.775Z,72.02
2022-09-23T10:03:53.197Z,72.00
2022-09-23T10:06:27.228Z,72.12
2022-09-23T10:09:17.218Z,72.08
2022-09-23T10:12:03.934Z,71.95
2022-09-23T10:14:31.686Z,71.85
2022-09-23T10:17:05.656Z,71.57
2022-09-23T10:19:37.261Z,71.33
2022-09-23T10:22:16.575Z,70.89
2022-09-23T10:24:49.165Z,70.74
2022-09-23T10:27:25.447Z,70.57
2022-09-23T10:29:56.928Z,70.46
2022-09-23T10:32:30.215Z,70.51
2022-09-23T10:35:03.849Z,70.53
2022-09-23T10:37:34.886Z,70.61
2022-09-23T10:40:32.338Z,70.43
2022-09-23T10:43:38.019Z,70.30
2022-09-23T10:46:27.512Z,69.97
2022-09-23T10:49:12.435Z,69.63
2022-09-23T10:51:49.280Z,69.10
2022-09-23T10:54:27.927Z,68.54
2022-09-23T10:57:00.826Z,68.47
2022-09-23T10:59:48.522Z,67.98
2022-09-23T11:02:28.792Z,67.60
2022-09-23T11:05:20.928Z,66.01
2022-09-23T11:08:00.418Z,65.29
2022-09-23T11:10:55.976Z,65.13
2022-09-23T11:13:36.182Z,65.00
2022-09-23T11:16:14.483Z,64.36
2022-09-23T11:18:56.195Z,63.07
2022-09-23T11:21:35.383Z,62.35
2022-09-23T11:24:18.582Z,61.89
2022-09-23T11:26:55.573Z,62.09
2022-09-23T11:30:10.251Z,61.75
2022-09-23T11:33:15.156Z,62.61
2022-09-23T11:35:47.779Z,63.21
2022-09-23T11:38:21.453Z,63.04
2022-09-23T11:40:54.882Z,62.97
2022-09-23T11:43:24.448Z,63.10
2022-09-23T11:45:58.938Z,63.58
2022-09-23T11:48:32.663Z,63.98
2022-09-23T11:51:02.855Z,64.44
2022-09-23T11:53:38.385Z,64.67
2022-09-23T11:56:22.860Z,64.92
2022-09-23T11:59:03.348Z,64.99
2022-09-23T12:01:37.874Z,65.18
2022-09-23T12:04:19.800Z,65.01
2022-09-23T12:06:55.089Z,65.10
2022-09-23T12:09:53.928Z,65.19
2022-09-23T12:12:27.093Z,65.27
2022-09-23T12:15:02.921Z,65.46
2022-09-23T12:18:02.110Z,65.38
2022-09-23T12:20:45.715Z,65.22
2022-09-23T12:23:29.904Z,65.23
2022-09-23T12:26:01.897Z,65.22
2022-09-23T12:28:33.622Z,65.39
2022-09-23T12:31:02.311Z,65.10
2022-09-23T12:33:32.569Z,64.73
2022-09-23T12:36:05.441Z,64.69
2022-09-23T12:38:36.452Z,64.62
2022-09-23T12:41:20.395Z,64.46
2022-09-23T12:43:56.358Z,64.31
2022-09-23T12:46:27.722Z,64.51
2022-09-23T12:49:06.667Z,63.92
2022-09-23T12:51:35.396Z,64.08
2022-09-23T12:54:24.037Z,64.16
2022-09-23T12:57:10.599Z,64.11
2022-09-23T12:59:57.575Z,64.05
2022-09-23T13:02:36.359Z,64.15
2022-09-23T13:05:35.035Z,64.00
2022-09-23T13:08:08.420Z,64.09
2022-09-23T13:10:43.211Z,63.85
2022-09-23T13:13:20.538Z,63.73
2022-09-23T13:15:49.928Z,63.83
2022-09-23T13:18:39.240Z,63.58
2022-09-23T13:21:17.946Z,63.72
2022-09-23T13:24:20.313Z,63.19
2022-09-23T13:26:49.986Z,63.57
2022-09-23T13:29:23.683Z,63.47
2022-09-23T13:31:53.727Z,63.41
2022-09-23T13:34:23.655Z,63.55
2022-09-23T13:36:50.800Z,63.39
2022-09-23T13:39:24.674Z,63.47
2022-09-23T13:41:55.719Z,63.47
2022-09-23T13:44:23.773Z,63.53
2022-09-23T13:46:58.283Z,63.15
2022-09-23T13:49:29.578Z,63.50
2022-09-23T13:51:57.585Z,63.59
2022-09-23T13:54:29.209Z,63.43
2022-09-23T13:56:56.874Z,63.37
2022-09-23T13:59:28.824Z,63.56
2022-09-23T14:02:12.906Z,63.52
2022-09-23T14:04:40.559Z,63.55
2022-09-23T14:07:09.843Z,63.90
2022-09-23T14:09:41.407Z,63.80
2022-09-23T14:12:11.242Z,63.83
2022-09-23T14:14:41.658Z,64.11
2022-09-23T14:17:17.759Z,64.13
2022-09-23T14:19:45.648Z,64.31
2022-09-23T14:22:23.594Z,64.39
2022-09-23T14:24:51.726Z,64.57
2022-09-23T14:27:25.820Z,64.71
2022-09-23T14:29:53.449Z,64.75
2022-09-23T14:32:25.663Z,64.72
2022-09-23T14:35:05.802Z,65.00
2022-09-23T14:37:58.408Z,65.02
2022-09-23T14:40:51.978Z,65.31
2022-09-23T14:43:24.232Z,65.26
2022-09-23T14:45:55.026Z,65.67
2022-09-23T14:48:27.371Z,65.84
2022-09-23T14:50:57.288Z,66.08
2022-09-23T14:53:35.474Z,66.30
2022-09-23T14:56:11.745Z,66.48
2022-09-23T14:58:49.453Z,66.29
2022-09-23T15:01:35.687Z,66.93
2022-09-23T15:04:27.947Z,66.70
2022-09-23T15:06:57.169Z,66.81
2022-09-23T15:09:27.679Z,66.67
2022-09-23T15:11:59.245Z,66.88
2022-09-23T15:14:38.840Z,67.43
2022-09-23T15:17:16.246Z,67.61
2022-09-23T15:19:46.715Z,67.69
2022-09-23T15:22:16.718Z,67.82
2022-09-23T15:24:45.224Z,67.88
2022-09-23T15:27:28.056Z,67.76
2022-09-23T15:30:03.027Z,68.45
2022-09-23T15:32:33.353Z,68.36
2022-09-23T15:35:07.874Z,68.72
2022-09-23T15:37:37.202Z,68.34
2022-09-23T15:40:05.230Z,68.75
2022-09-23T15:42:32.597Z,68.91
2022-09-23T15:45:00.744Z,68.98
2022-09-23T15:47:28.012Z,69.20
2022-09-23T15:49:55.278Z,69.32
2022-09-23T15:52:23.967Z,69.26
2022-09-23T15:54:52.166Z,69.15
2022-09-23T15:57:19.761Z,69.36
2022-09-23T15:59:46.953Z,69.74
2022-09-23T16:02:22.732Z,69.88
2022-09-23T16:04:51.672Z,70.24
2022-09-23T16:07:23.031Z,70.58
2022-09-23T16:09:51.890Z,70.69
2022-09-23T16:12:21.528Z,70.24
2022-09-23T16:14:48.971Z,70.60
2022-09-23T16:17:16.222Z,70.46
2022-09-23T16:19:44.144Z,70.63
2022-09-23T16:22:14.619Z,70.90
2022-09-23T16:24:41.919Z,70.53
2022-09-23T16:27:16.652Z,71.02
2022-09-23T16:29:43.838Z,71.12
2022-09-23T16:32:11.182Z,71.22
2022-09-23T16:34:38.483Z,71.04
2022-09-23T16:37:06.982Z,71.39
2022-09-23T16:39:34.848Z,71.20
2022-09-23T16:42:02.361Z,71.58
2022-09-23T16:44:37.635Z,71.24
2022-09-23T16:47:05.849Z,71.82
2022-09-23T16:49:36.356Z,71.90
2022-09-23T16:52:04.034Z,72.06
2022-09-23T16:54:32.016Z,72.12
2022-09-23T16:56:59.659Z,72.40
2022-09-23T16:59:46.827Z,72.47
2022-09-23T17:02:42.079Z,72.48
2022-09-23T17:05:10.779Z,72.73
2022-09-23T17:07:38.060Z,72.80
2022-09-23T17:10:05.950Z,73.16
2022-09-23T17:12:35.344Z,72.80
2022-09-23T17:15:04.186Z,72.90
2022-09-23T17:17:37.670Z,73.32
2022-09-23T17:20:06.295Z,73.59
2022-09-23T17:22:34.025Z,73.66
2022-09-23T17:25:02.368Z,73.43
2022-09-23T17:27:31.940Z,73.52
2022-09-23T17:29:59.318Z,73.83
2022-09-23T17:32:27.081Z,73.53
2022-09-23T17:34:55.842Z,73.60
2022-09-23T17:37:23.057Z,73.68
2022-09-23T17:39:50.181Z,74.05
2022-09-23T17:42:18.386Z,73.96
2022-09-23T17:44:46.069Z,73.80
2022-09-23T17:47:13.681Z,74.08
2022-09-23T17:49:40.985Z,73.98
2022-09-23T17:52:09.614Z,74.36
2022-09-23T17:54:36.884Z,74.03
2022-09-23T17:57:04.431Z,74.50
2022-09-23T17:59:31.620Z,74.69
2022-09-23T18:02:00.800Z,74.32
2022-09-23T18:04:28.160Z,74.27
2022-09-23T18:06:55.688Z,74.56
2022-09-23T18:09:24.307Z,74.32
2022-09-23T18:11:51.462Z,74.13
2022-09-23T18:14:23.060Z,74.32
2022-09-23T18:16:52.112Z,74.37
2022-09-23T18:19:21.940Z,74.60
2022-09-23T18:21:51.830Z,74.59
2022-09-23T18:24:35.254Z,74.34
2022-09-23T18:27:04.376Z,74.63
2022-09-23T18:29:33.329Z,74.40
2022-09-23T18:32:01.283Z,74.45
2022-09-23T18:34:37.032Z,74.64
2022-09-23T18:37:15.057Z,74.42
2022-09-23T18:39:45.222Z,74.97
2022-09-23T18:42:18.168Z,75.04
2022-09-23T18:44:45.360Z,75.00
2022-09-23T18:47:32.545Z,75.44
2022-09-23T18:50:18.377Z,74.92
2022-09-23T18:52:45.707Z,75.18
2022-09-23T18:55:13.300Z,75.44
2022-09-23T18:57:42.268Z,75.72
2022-09-23T19:00:10.689Z,75.52
2022-09-23T19:02:38.531Z,75.90
2022-09-23T19:05:07.364Z,75.58
2022-09-23T19:07:34.732Z,76.02
2022-09-23T19:10:02.053Z,75.93
2022-09-23T19:12:33.040Z,76.17
2022-09-23T19:15:01.689Z,76.03
2022-09-23T19:17:30.809Z,76.51
2022-09-23T19:19:58.701Z,76.37
2022-09-23T19:22:26.350Z,76.51
2022-09-23T19:24:53.532Z,75.89
2022-09-23T19:27:20.712Z,76.58
2022-09-23T19:29:48.158Z,76.20
2022-09-23T19:32:16.965Z,76.25
2022-09-23T19:34:44.350Z,76.16
2022-09-23T19:37:12.373Z,76.51
2022-09-23T19:39:40.918Z,76.75
2022-09-23T19:42:08.139Z,76.74
2022-09-23T19:44:41.105Z,76.62
2022-09-23T19:47:15.568Z,76.55
2022-09-23T19:49:44.359Z,76.72
2022-09-23T19:52:11.627Z,77.16
2022-09-23T19:54:38.858Z,76.80
2022-09-23T19:57:06.495Z,77.18
2022-09-23T19:59:33.734Z,77.11
2022-09-23T20:02:01.129Z,77.38
2022-09-23T20:04:28.680Z,77.83
2022-09-23T20:06:57.229Z,77.72
2022-09-23T20:09:24.483Z,77.54
2022-09-23T20:11:52.272Z,77.47
2022-09-23T20:14:20.312Z,77.85
2022-09-23T20:16:47.561Z,77.83
2022-09-23T20:19:15.253Z,77.51
2022-09-23T20:21:42.468Z,77.70
2022-09-23T20:24:12.470Z,77.89
2022-09-23T20:26:58.449Z,77.70
2022-09-23T20:29:25.705Z,77.86
2022-09-23T20:31:53.017Z,77.74
2022-09-23T20:34:21.337Z,77.71
2022-09-23T20:36:49.077Z,77.39
2022-09-23T20:39:17.732Z,78.02
2022-09-23T20:41:45.005Z,77.53
2022-09-23T20:44:12.732Z,78.06
2022-09-23T20:46:45.277Z,77.94
2022-09-23T20:49:15.844Z,77.85
2022-09-23T20:51:43.155Z,78.03
2022-09-23T20:54:12.221Z,78.32
2022-09-23T20:56:40.962Z,78.03
2022-09-23T20:59:10.479Z,78.62
2022-09-23T21:01:38.079Z,78.32
2022-09-23T21:04:06.072Z,78.56
2022-09-23T21:06:34.725Z,78.52
2022-09-23T21:09:02.394Z,78.01
2022-09-23T21:11:30.143Z,78.47
2022-09-23T21:14:01.260Z,78.66
2022-09-23T21:16:29.245Z,78.91
2022-09-23T21:18:57.912Z,78.75
2022-09-23T21:21:25.438Z,78.71
2022-09-23T21:23:52.936Z,78.94
2022-09-23T21:26:21.702Z,78.47
2022-09-23T21:28:50.527Z,78.74
2022-09-23T21:31:25.689Z,78.74
2022-09-23T21:33:54.129Z,78.77
2022-09-23T21:36:21.790Z,78.87
2022-09-23T21:38:49.108Z,78.64
2022-09-23T21:41:16.332Z,78.98
2022-09-23T21:43:44.585Z,78.72
2022-09-23T21:46:15.558Z,79.01
2022-09-23T21:49:02.467Z,79.47
2022-09-23T21:51:31.538Z,79.21
2022-09-23T21:53:58.910Z,79.35
2022-09-23T21:56:28.162Z,79.47
2022-09-23T21:58:57.845Z,79.58
2022-09-23T22:01:29.683Z,79.98
2022-09-23T22:04:01.820Z,80.21
2022-09-23T22:06:30.541Z,80.16
2022-09-23T22:08:59.948Z,80.04
2022-09-23T22:11:48.323Z,80.37
2022-09-23T22:14:17.143Z,80.39
2022-09-23T22:16:44.726Z,80.79
2022-09-23T22:19:14.621Z,80.97
2022-09-23T22:21:44.091Z,81.65
2022-09-23T22:24:12.657Z,81.68
2022-09-23T22:26:41.835Z,82.22
2022-09-23T22:29:30.392Z,82.63
2022-09-23T22:32:16.033Z,82.54
2022-09-23T22:34:50.499Z,82.69
2022-09-23T22:37:20.881Z,82.80
2022-09-23T22:39:48.108Z,82.98
2022-09-23T22:42:15.608Z,82.97
2022-09-23T22:44:43.633Z,83.08
2022-09-23T22:47:11.115Z,83.59
2022-09-23T22:49:38.350Z,83.24
2022-09-23T22:52:11.491Z,83.53
2022-09-23T22:54:38.981Z,83.71
2022-09-23T22:57:07.256Z,83.64
2022-09-23T22:59:34.976Z,83.65
2022-09-23T23:02:03.128Z,83.75
2022-09-23T23:04:31.114Z,84.27
2022-09-23T23:06:59.006Z,84.33
2022-09-23T23:09:27.832Z,84.35
2022-09-23T23:11:55.102Z,84.29
2022-09-23T23:14:22.542Z,84.69
2022-09-23T23:16:53.727Z,84.81
2022-09-23T23:19:21.046Z,84.80
2022-09-23T23:21:50.141Z,84.84
2022-09-23T23:24:19.638Z,85.09
2022-09-23T23:26:48.764Z,85.24
2022-09-23T23:29:17.892Z,85.15
2022-09-23T23:31:45.350Z,85.40
2022-09-23T23:34:13.758Z,86.01
2022-09-23T23:36:41.567Z,85.80
2022-09-23T23:39:09.364Z,85.86
2022-09-23T23:41:38.056Z,86.40
2022-09-23T23:44:07.963Z,86.55
2022-09-23T23:46:37.457Z,86.15
2022-09-23T23:49:05.030Z,86.38
2022-09-23T23:51:32.426Z,86.80
2022-09-23T23:54:00.328Z,86.52
2022-09-23T23:56:30.017Z,86.93
2022-09-23T23:58:58.789Z,86.94
